createdAt,value
2022-08-26T00:00:06.038Z,98899.40
2022-08-26T00:02:53.608Z,98894.40
2022-08-26T00:05:21.316Z,98894.80
2022-08-26T00:07:51.471Z,98891.00
2022-08-26T00:10:20.900Z,98895.00
2022-08-26T00:12:51.593Z,98896.20
2022-08-26T00:15:22.033Z,98892.40
2022-08-26T00:17:51.934Z,98890.20
2022-08-26T00:20:27.186Z,98887.40
2022-08-26T00:22:55.537Z,98889.80
2022-08-26T00:25:24.583Z,98886.40
2022-08-26T00:27:52.992Z,98884.00
2022-08-26T00:30:26.694Z,98886.60
2022-08-26T00:32:56.062Z,98881.00
2022-08-26T00:35:26.007Z,98884.40
2022-08-26T00:37:57.192Z,98888.00
2022-08-26T00:40:38.126Z,98886.60
2022-08-26T00:43:09.614Z,98886.60
2022-08-26T00:46:12.385Z,98884.40
2022-08-26T00:48:46.964Z,98886.40
2022-08-26T00:51:23.122Z,98885.80
2022-08-26T00:53:57.144Z,98883.60
2022-08-26T00:56:33.248Z,98886.60
2022-08-26T00:59:08.701Z,98886.00
2022-08-26T01:01:38.683Z,98886.00
2022-08-26T01:04:06.438Z,98890.00
2022-08-26T01:06:34.564Z,98884.80
2022-08-26T01:09:03.184Z,98887.20
2022-08-26T01:11:32.632Z,98895.60
2022-08-26T01:14:04.576Z,98892.40
2022-08-26T01:16:36.013Z,98892.60
2022-08-26T01:19:21.837Z,98891.60
2022-08-26T01:22:00.143Z,98891.80
2022-08-26T01:24:30.839Z,98886.80
2022-08-26T01:27:09.077Z,98886.20
2022-08-26T01:29:40.956Z,98886.80
2022-08-26T01:32:15.833Z,98883.00
2022-08-26T01:34:43.610Z,98883.20
2022-08-26T01:37:17.012Z,98889.80
2022-08-26T01:39:49.867Z,98891.40
2022-08-26T01:42:20.873Z,98892.00
2022-08-26T01:45:18.368Z,98889.60
2022-08-26T01:47:56.853Z,98892.40
2022-08-26T01:50:30.704Z,98894.40
2022-08-26T01:53:06.922Z,98894.80
2022-08-26T01:55:39.267Z,98892.00
2022-08-26T01:58:17.655Z,98886.80
2022-08-26T02:00:48.033Z,98887.20
2022-08-26T02:03:22.275Z,98883.80
2022-08-26T02:06:09.214Z,98883.20
2022-08-26T02:08:44.642Z,98879.60
2022-08-26T02:11:13.596Z,98877.20
2022-08-26T02:13:47.189Z,98875.00
2022-08-26T02:16:23.889Z,98877.00
2022-08-26T02:18:53.793Z,98874.20
2022-08-26T02:21:22.048Z,98872.20
2022-08-26T02:23:52.947Z,98872.20
2022-08-26T02:26:26.930Z,98871.00
2022-08-26T02:29:24.820Z,98872.00
2022-08-26T02:31:55.728Z,98869.00
2022-08-26T02:34:32.046Z,98864.80
2022-08-26T02:37:07.504Z,98863.60
2022-08-26T02:39:38.204Z,98867.80
2022-08-26T02:42:06.708Z,98867.60
2022-08-26T02:44:34.901Z,98868.60
2022-08-26T02:47:03.687Z,98870.80
2022-08-26T02:49:32.950Z,98869.00
2022-08-26T02:52:01.885Z,98866.60
2022-08-26T02:54:29.828Z,98867.40
2022-08-26T02:56:57.656Z,98864.80
2022-08-26T02:59:25.307Z,98863.80
2022-08-26T03:01:56.002Z,98860.00
2022-08-26T03:04:25.688Z,98858.00
2022-08-26T03:06:55.462Z,98859.80
2022-08-26T03:09:24.736Z,98861.20
2022-08-26T03:11:52.813Z,98859.00
2022-08-26T03:14:20.949Z,98857.40
2022-08-26T03:16:50.954Z,98858.40
2022-08-26T03:19:18.900Z,98856.40
2022-08-26T03:21:47.353Z,98857.60
2022-08-26T03:24:15.805Z,98856.00
2022-08-26T03:26:52.708Z,98864.40
2022-08-26T03:29:41.152Z,98857.80
2022-08-26T03:32:09.693Z,98860.60
2022-08-26T03:34:38.700Z,98861.20
2022-08-26T03:37:06.517Z,98855.60
2022-08-26T03:39:35.008Z,98852.80
2022-08-26T03:42:02.722Z,98850.80
2022-08-26T03:44:30.435Z,98852.20
2022-08-26T03:46:58.179Z,98851.40
2022-08-26T03:49:26.432Z,98851.40
2022-08-26T03:51:56.788Z,98848.40
2022-08-26T03:54:24.537Z,98849.80
2022-08-26T03:56:52.477Z,98843.60
2022-08-26T03:59:20.976Z,98847.40
2022-08-26T04:01:48.735Z,98844.80
2022-08-26T04:04:17.077Z,98841.00
2022-08-26T04:06:45.299Z,98838.80
2022-08-26T04:09:19.009Z,98841.20
2022-08-26T04:11:50.581Z,98841.00
2022-08-26T04:14:23.684Z,98841.00
2022-08-26T04:16:53.927Z,98842.40
2022-08-26T04:19:25.592Z,98840.00
2022-08-26T04:21:54.555Z,98839.40
2022-08-26T04:24:26.864Z,98844.40
2022-08-26T04:26:56.587Z,98849.00
2022-08-26T04:29:26.847Z,98844.00
2022-08-26T04:31:55.907Z,98842.00
2022-08-26T04:34:28.566Z,98845.00
2022-08-26T04:36:57.973Z,98845.00
2022-08-26T04:39:27.633Z,98845.40
2022-08-26T04:41:55.888Z,98846.40
2022-08-26T04:44:29.268Z,98842.80
2022-08-26T04:46:58.440Z,98844.00
2022-08-26T04:49:27.670Z,98840.80
2022-08-26T04:51:55.497Z,98842.40
2022-08-26T04:54:23.609Z,98843.20
2022-08-26T04:56:54.149Z,98843.20
2022-08-26T04:59:21.836Z,98844.40
2022-08-26T05:01:53.209Z,98847.80
2022-08-26T05:04:21.317Z,98848.60
2022-08-26T05:06:50.376Z,98848.00
2022-08-26T05:09:18.723Z,98843.00
2022-08-26T05:11:48.498Z,98846.00
2022-08-26T05:14:23.349Z,98838.20
2022-08-26T05:16:52.619Z,98837.00
2022-08-26T05:19:21.185Z,98835.40
2022-08-26T05:21:49.381Z,98832.40
2022-08-26T05:24:18.239Z,98824.40
2022-08-26T05:26:47.223Z,98829.60
2022-08-26T05:29:16.990Z,98827.60
2022-08-26T05:31:44.786Z,98825.80
2022-08-26T05:34:12.919Z,98828.60
2022-08-26T05:36:41.278Z,98832.40
2022-08-26T05:39:10.559Z,98829.80
2022-08-26T05:41:41.934Z,98824.40
2022-08-26T05:44:14.583Z,98826.00
2022-08-26T05:46:44.716Z,98829.00
2022-08-26T05:49:16.007Z,98823.60
2022-08-26T05:51:47.578Z,98819.60
2022-08-26T05:54:22.011Z,98819.80
2022-08-26T05:56:52.268Z,98817.60
2022-08-26T05:59:24.040Z,98815.20
2022-08-26T06:01:55.194Z,98811.80
2022-08-26T06:04:27.944Z,98804.80
2022-08-26T06:06:58.600Z,98806.60
2022-08-26T06:09:27.405Z,98809.20
2022-08-26T06:11:56.065Z,98811.80
2022-08-26T06:14:23.704Z,98810.40
2022-08-26T06:16:51.807Z,98812.40
2022-08-26T06:19:20.068Z,98808.60
2022-08-26T06:21:54.852Z,98809.20
2022-08-26T06:24:41.599Z,98808.80
2022-08-26T06:27:13.556Z,98808.60
2022-08-26T06:29:41.905Z,98809.80
2022-08-26T06:32:09.551Z,98809.20
2022-08-26T06:34:37.449Z,98814.80
2022-08-26T06:37:06.357Z,98818.60
2022-08-26T06:39:34.606Z,98815.20
2022-08-26T06:42:03.413Z,98813.00
2022-08-26T06:44:34.522Z,98815.60
2022-08-26T06:47:02.162Z,98814.40
2022-08-26T06:49:29.873Z,98816.80
2022-08-26T06:51:58.638Z,98817.60
2022-08-26T06:54:30.297Z,98814.00
2022-08-26T06:56:58.945Z,98809.40
2022-08-26T06:59:26.765Z,98818.00
2022-08-26T07:01:55.221Z,98816.80
2022-08-26T07:04:24.681Z,98814.00
2022-08-26T07:06:54.067Z,98809.60
2022-08-26T07:09:25.656Z,98814.60
2022-08-26T07:11:56.379Z,98812.00
2022-08-26T07:14:25.220Z,98817.60
2022-08-26T07:16:54.891Z,98819.00
2022-08-26T07:19:30.052Z,98820.60
2022-08-26T07:22:03.530Z,98818.00
2022-08-26T07:24:35.430Z,98814.20
2022-08-26T07:27:10.173Z,98814.00
2022-08-26T07:29:40.509Z,98811.00
2022-08-26T07:32:10.082Z,98814.40
2022-08-26T07:34:39.193Z,98816.60
2022-08-26T07:37:08.730Z,98814.40
2022-08-26T07:39:38.384Z,98814.20
2022-08-26T07:42:13.357Z,98812.80
2022-08-26T07:44:43.846Z,98812.20
2022-08-26T07:47:24.752Z,98807.20
2022-08-26T07:49:57.815Z,98812.20
2022-08-26T07:52:29.274Z,98809.00
2022-08-26T07:55:02.331Z,98814.80
2022-08-26T07:57:30.813Z,98809.40
2022-08-26T07:59:59.636Z,98810.40
2022-08-26T08:02:29.219Z,98812.80
2022-08-26T08:04:58.827Z,98813.20
2022-08-26T08:07:44.415Z,98812.60
2022-08-26T08:10:19.297Z,98807.40
2022-08-26T08:12:50.103Z,98811.20
2022-08-26T08:15:24.196Z,98813.00
2022-08-26T08:17:53.071Z,98808.80
2022-08-26T08:20:23.019Z,98800.60
2022-08-26T08:22:52.524Z,98807.00
2022-08-26T08:25:23.046Z,98808.80
2022-08-26T08:27:51.094Z,98808.40
2022-08-26T08:30:23.130Z,98804.80
2022-08-26T08:32:52.323Z,98806.60
2022-08-26T08:35:22.480Z,98802.80
2022-08-26T08:37:54.350Z,98802.80
2022-08-26T08:40:26.071Z,98797.40
2022-08-26T08:43:07.101Z,98794.60
2022-08-26T08:45:51.000Z,98793.80
2022-08-26T08:48:29.560Z,98794.80
2022-08-26T08:51:27.243Z,98799.80
2022-08-26T08:53:56.563Z,98797.00
2022-08-26T08:56:33.621Z,98795.20
2022-08-26T08:59:16.677Z,98795.40
2022-08-26T09:02:14.755Z,98799.00
2022-08-26T09:05:34.224Z,98795.40
2022-08-26T09:08:16.214Z,98796.20
2022-08-26T09:10:55.202Z,98797.20
2022-08-26T09:13:27.237Z,98792.60
2022-08-26T09:16:13.942Z,98795.60
2022-08-26T09:19:31.480Z,98783.80
2022-08-26T09:22:03.671Z,98788.00
2022-08-26T09:24:42.159Z,98783.60
2022-08-26T09:27:46.696Z,98773.20
2022-08-26T09:30:31.441Z,98779.20
2022-08-26T09:33:10.231Z,98772.60
2022-08-26T09:35:47.143Z,98774.20
2022-08-26T09:38:33.944Z,98775.40
2022-08-26T09:41:08.898Z,98772.00
2022-08-26T09:43:36.925Z,98771.00
2022-08-26T09:46:21.384Z,98770.60
2022-08-26T09:48:53.046Z,98769.00
2022-08-26T09:51:23.696Z,98758.40
2022-08-26T09:54:01.189Z,98759.80
2022-08-26T09:56:47.504Z,98755.20
2022-08-26T09:59:29.897Z,98752.60
2022-08-26T10:02:18.772Z,98748.60
2022-08-26T10:04:56.441Z,98749.80
2022-08-26T10:07:58.485Z,98753.60
2022-08-26T10:10:33.069Z,98748.00
2022-08-26T10:13:11.799Z,98746.20
2022-08-26T10:16:15.534Z,98752.60
2022-08-26T10:19:00.698Z,98743.80
2022-08-26T10:21:54.054Z,98746.20
2022-08-26T10:24:44.123Z,98741.60
2022-08-26T10:27:34.496Z,98738.80
2022-08-26T10:30:12.030Z,98738.80
2022-08-26T10:32:50.433Z,98731.60
2022-08-26T10:35:19.953Z,98729.60
2022-08-26T10:37:58.557Z,98732.00
2022-08-26T10:40:53.411Z,98731.40
2022-08-26T10:43:31.332Z,98736.40
2022-08-26T10:46:17.210Z,98731.80
2022-08-26T10:48:59.921Z,98722.80
2022-08-26T10:51:45.880Z,98723.20
2022-08-26T10:54:44.186Z,98720.20
2022-08-26T10:57:54.857Z,98721.80
2022-08-26T11:00:51.446Z,98718.60
2022-08-26T11:03:58.712Z,98707.80
2022-08-26T11:06:31.400Z,98709.60
2022-08-26T11:09:03.846Z,98716.60
2022-08-26T11:11:40.694Z,98712.60
2022-08-26T11:14:28.734Z,98712.20
2022-08-26T11:16:59.765Z,98712.60
2022-08-26T11:19:45.344Z,98708.80
2022-08-26T11:22:31.186Z,98705.40
2022-08-26T11:24:58.934Z,98701.80
2022-08-26T11:27:27.103Z,98706.20
2022-08-26T11:30:13.147Z,98700.00
2022-08-26T11:32:41.129Z,98703.80
2022-08-26T11:35:19.284Z,98695.20
2022-08-26T11:38:01.535Z,98698.00
2022-08-26T11:40:38.600Z,98688.00
2022-08-26T11:43:14.948Z,98687.20
2022-08-26T11:45:59.866Z,98693.00
2022-08-26T11:48:28.302Z,98680.80
2022-08-26T11:51:23.053Z,98690.00
2022-08-26T11:53:51.559Z,98687.80
2022-08-26T11:56:33.179Z,98685.20
2022-08-26T11:59:09.908Z,98690.80
2022-08-26T12:01:43.338Z,98686.60
2022-08-26T12:04:25.091Z,98679.40
2022-08-26T12:06:53.466Z,98677.00
2022-08-26T12:09:29.944Z,98673.60
2022-08-26T12:12:18.025Z,98670.00
2022-08-26T12:14:45.635Z,98666.40
2022-08-26T12:17:26.495Z,98664.20
2022-08-26T12:19:54.140Z,98658.60
2022-08-26T12:22:29.163Z,98660.20
2022-08-26T12:25:08.833Z,98652.40
2022-08-26T12:27:45.457Z,98649.00
2022-08-26T12:30:23.694Z,98644.60
2022-08-26T12:33:13.333Z,98638.40
2022-08-26T12:35:56.514Z,98639.80
2022-08-26T12:38:27.510Z,98641.40
2022-08-26T12:40:57.139Z,98642.40
2022-08-26T12:43:44.483Z,98642.60
2022-08-26T12:46:28.459Z,98635.00
2022-08-26T12:49:01.094Z,98641.00
2022-08-26T12:51:32.943Z,98633.60
2022-08-26T12:54:06.637Z,98631.20
2022-08-26T12:56:39.048Z,98634.20
2022-08-26T12:59:25.011Z,98633.20
2022-08-26T13:01:54.084Z,98629.00
2022-08-26T13:04:43.889Z,98631.20
2022-08-26T13:07:27.361Z,98629.60
2022-08-26T13:09:58.280Z,98628.00
2022-08-26T13:12:38.152Z,98617.60
2022-08-26T13:15:06.953Z,98622.40
2022-08-26T13:17:35.982Z,98617.40
2022-08-26T13:20:04.643Z,98616.80
2022-08-26T13:22:33.829Z,98608.40
2022-08-26T13:25:01.611Z,98613.40
2022-08-26T13:27:29.586Z,98613.60
2022-08-26T13:29:57.870Z,98608.60
2022-08-26T13:32:27.535Z,98614.60
2022-08-26T13:34:57.484Z,98610.40
2022-08-26T13:37:34.940Z,98609.80
2022-08-26T13:40:07.066Z,98608.40
2022-08-26T13:42:34.938Z,98609.40
2022-08-26T13:45:04.214Z,98609.00
2022-08-26T13:47:32.558Z,98605.60
2022-08-26T13:50:00.295Z,98603.00
2022-08-26T13:52:30.494Z,98605.80
2022-08-26T13:55:00.638Z,98598.40
2022-08-26T13:57:30.265Z,98597.40
2022-08-26T13:59:59.419Z,98597.60
2022-08-26T14:02:28.481Z,98597.80
2022-08-26T14:04:56.394Z,98603.40
2022-08-26T14:07:24.291Z,98602.40
2022-08-26T14:09:52.335Z,98590.80
2022-08-26T14:12:19.977Z,98589.40
2022-08-26T14:14:48.155Z,98592.60
2022-08-26T14:17:21.932Z,98586.20
2022-08-26T14:19:50.718Z,98587.00
2022-08-26T14:22:22.165Z,98582.60
2022-08-26T14:24:50.628Z,98588.40
2022-08-26T14:27:18.460Z,98586.60
2022-08-26T14:29:46.078Z,98581.00
2022-08-26T14:32:27.086Z,98578.60
2022-08-26T14:34:56.096Z,98580.40
2022-08-26T14:37:24.466Z,98573.40
2022-08-26T14:39:52.482Z,98578.20
2022-08-26T14:42:25.862Z,98581.80
2022-08-26T14:45:05.167Z,98585.20
2022-08-26T14:47:33.198Z,98575.00
2022-08-26T14:50:01.008Z,98577.60
2022-08-26T14:52:29.669Z,98579.40
2022-08-26T14:54:57.322Z,98575.80
2022-08-26T14:57:25.008Z,98571.80
2022-08-26T14:59:53.167Z,98568.20
2022-08-26T15:02:33.629Z,98570.40
2022-08-26T15:05:03.987Z,98574.80
2022-08-26T15:07:31.935Z,98571.80
2022-08-26T15:09:59.734Z,98571.80
2022-08-26T15:12:27.881Z,98568.20
2022-08-26T15:14:55.525Z,98574.20
2022-08-26T15:17:23.482Z,98578.20
2022-08-26T15:19:51.619Z,98580.80
2022-08-26T15:22:19.182Z,98584.80
2022-08-26T15:24:46.896Z,98581.00
2022-08-26T15:27:19.234Z,98583.40
2022-08-26T15:29:46.869Z,98584.60
2022-08-26T15:32:14.660Z,98587.20
2022-08-26T15:34:42.301Z,98584.60
2022-08-26T15:37:10.056Z,98588.60
2022-08-26T15:39:37.777Z,98591.40
2022-08-26T15:42:05.769Z,98594.00
2022-08-26T15:44:34.248Z,98588.20
2022-08-26T15:47:01.947Z,98586.60
2022-08-26T15:49:29.541Z,98589.60
2022-08-26T15:51:57.213Z,98586.20
2022-08-26T15:54:24.886Z,98584.80
2022-08-26T15:56:53.181Z,98586.40
2022-08-26T15:59:22.676Z,98588.40
2022-08-26T16:01:51.991Z,98590.00
2022-08-26T16:04:20.584Z,98586.80
2022-08-26T16:06:51.512Z,98589.60
2022-08-26T16:09:26.827Z,98583.80
2022-08-26T16:11:58.511Z,98586.00
2022-08-26T16:14:26.858Z,98581.00
2022-08-26T16:16:54.848Z,98580.80
2022-08-26T16:19:22.753Z,98575.80
2022-08-26T16:21:51.499Z,98574.80
2022-08-26T16:24:28.386Z,98572.20
2022-08-26T16:26:58.277Z,98571.20
2022-08-26T16:29:27.163Z,98573.20
2022-08-26T16:31:54.962Z,98570.00
2022-08-26T16:34:23.002Z,98565.60
2022-08-26T16:36:50.654Z,98564.80
2022-08-26T16:39:18.334Z,98564.60
2022-08-26T16:41:46.120Z,98566.40
2022-08-26T16:44:13.789Z,98559.40
2022-08-26T16:46:41.765Z,98558.00
2022-08-26T16:49:09.335Z,98557.60
2022-08-26T16:51:38.161Z,98555.80
2022-08-26T16:54:08.822Z,98555.80
2022-08-26T16:56:37.947Z,98553.00
2022-08-26T16:59:10.497Z,98556.60
2022-08-26T17:01:38.319Z,98556.00
2022-08-26T17:04:06.119Z,98555.40
2022-08-26T17:06:34.329Z,98554.80
2022-08-26T17:09:02.255Z,98559.60
2022-08-26T17:11:30.606Z,98558.00
2022-08-26T17:13:58.225Z,98551.80
2022-08-26T17:16:27.482Z,98551.20
2022-08-26T17:18:57.948Z,98552.60
2022-08-26T17:21:28.012Z,98552.60
2022-08-26T17:23:56.453Z,98548.40
2022-08-26T17:26:24.113Z,98548.80
2022-08-26T17:28:51.736Z,98546.20
2022-08-26T17:31:21.051Z,98547.00
2022-08-26T17:33:53.437Z,98542.00
2022-08-26T17:36:28.179Z,98542.20
2022-08-26T17:38:58.062Z,98538.00
2022-08-26T17:41:27.012Z,98534.20
2022-08-26T17:43:55.122Z,98534.20
2022-08-26T17:46:23.605Z,98533.00
2022-08-26T17:48:51.641Z,98524.60
2022-08-26T17:51:20.479Z,98523.60
2022-08-26T17:53:48.728Z,98527.00
2022-08-26T17:56:20.659Z,98526.40
2022-08-26T17:58:52.949Z,98535.60
2022-08-26T18:01:23.538Z,98534.40
2022-08-26T18:03:56.699Z,98532.00
2022-08-26T18:06:27.279Z,98539.40
2022-08-26T18:08:54.947Z,98536.40
2022-08-26T18:11:24.409Z,98537.80
2022-08-26T18:13:52.079Z,98536.60
2022-08-26T18:16:20.548Z,98537.60
2022-08-26T18:18:53.407Z,98539.80
2022-08-26T18:21:26.142Z,98544.20
2022-08-26T18:23:55.255Z,98540.20
2022-08-26T18:26:34.940Z,98544.60
2022-08-26T18:29:04.562Z,98547.00
2022-08-26T18:31:33.483Z,98552.00
2022-08-26T18:34:03.091Z,98557.00
2022-08-26T18:36:36.816Z,98560.00
2022-08-26T18:39:07.935Z,98565.80
2022-08-26T18:41:43.805Z,98560.80
2022-08-26T18:44:15.328Z,98561.80
2022-08-26T18:46:46.229Z,98563.80
2022-08-26T18:49:16.982Z,98562.00
2022-08-26T18:51:46.711Z,98561.20
2022-08-26T18:54:15.157Z,98559.40
2022-08-26T18:56:43.799Z,98566.00
2022-08-26T18:59:13.989Z,98569.60
2022-08-26T19:01:42.849Z,98574.00
2022-08-26T19:04:14.121Z,98567.80
2022-08-26T19:06:48.368Z,98572.80
2022-08-26T19:09:18.809Z,98570.00
2022-08-26T19:11:49.653Z,98572.00
2022-08-26T19:14:18.681Z,98574.60
2022-08-26T19:16:49.136Z,98579.80
2022-08-26T19:19:17.252Z,98577.00
2022-08-26T19:21:47.044Z,98577.00
2022-08-26T19:24:17.653Z,98582.20
2022-08-26T19:26:49.823Z,98582.20
2022-08-26T19:29:24.157Z,98582.40
2022-08-26T19:31:51.799Z,98588.00
2022-08-26T19:34:20.797Z,98591.60
2022-08-26T19:36:49.842Z,98590.20
2022-08-26T19:39:17.838Z,98590.40
2022-08-26T19:41:45.765Z,98594.00
2022-08-26T19:44:38.286Z,98600.60
2022-08-26T19:47:09.673Z,98598.00
2022-08-26T19:49:37.929Z,98598.40
2022-08-26T19:52:06.056Z,98601.80
2022-08-26T19:54:35.220Z,98600.80
2022-08-26T19:57:04.075Z,98605.40
2022-08-26T19:59:33.122Z,98606.40
2022-08-26T20:02:01.938Z,98603.40
2022-08-26T20:04:32.425Z,98601.40
2022-08-26T20:07:01.957Z,98602.40
2022-08-26T20:09:34.015Z,98601.20
2022-08-26T20:12:05.113Z,98610.60
2022-08-26T20:14:35.202Z,98617.00
2022-08-26T20:17:04.829Z,98617.80
2022-08-26T20:19:52.025Z,98624.00
2022-08-26T20:22:21.285Z,98630.00
2022-08-26T20:24:50.013Z,98631.60
2022-08-26T20:27:18.104Z,98629.80
2022-08-26T20:29:45.776Z,98627.80
2022-08-26T20:32:13.533Z,98624.00
2022-08-26T20:34:41.245Z,98625.00
2022-08-26T20:37:08.868Z,98625.60
2022-08-26T20:39:36.761Z,98625.80
2022-08-26T20:42:06.604Z,98624.80
2022-08-26T20:44:54.243Z,98622.00
2022-08-26T20:47:23.217Z,98625.20
2022-08-26T20:49:52.244Z,98621.20
2022-08-26T20:52:20.532Z,98627.80
2022-08-26T20:54:48.605Z,98631.40
2022-08-26T20:57:16.351Z,98632.00
2022-08-26T20:59:43.918Z,98635.60
2022-08-26T21:02:11.504Z,98636.00
2022-08-26T21:04:39.247Z,98627.20
2022-08-26T21:07:06.951Z,98628.20
2022-08-26T21:09:34.543Z,98626.80
2022-08-26T21:12:02.542Z,98624.80
2022-08-26T21:14:30.080Z,98626.20
2022-08-26T21:16:58.463Z,98625.00
2022-08-26T21:19:26.745Z,98626.80
2022-08-26T21:21:54.457Z,98629.20
2022-08-26T21:24:22.101Z,98623.20
2022-08-26T21:26:49.876Z,98624.60
2022-08-26T21:29:17.594Z,98619.20
2022-08-26T21:31:46.723Z,98622.20
2022-08-26T21:34:18.765Z,98621.80
2022-08-26T21:36:47.987Z,98616.60
2022-08-26T21:39:16.785Z,98616.80
2022-08-26T21:41:45.093Z,98613.40
2022-08-26T21:44:15.919Z,98613.20
2022-08-26T21:46:45.877Z,98614.20
2022-08-26T21:49:18.453Z,98608.20
2022-08-26T21:51:48.607Z,98612.80
2022-08-26T21:54:18.138Z,98613.60
2022-08-26T21:56:47.541Z,98612.60
2022-08-26T21:59:18.427Z,98609.60
2022-08-26T22:01:47.332Z,98606.40
2022-08-26T22:04:17.164Z,98603.80
2022-08-26T22:06:49.825Z,98600.00
2022-08-26T22:09:24.401Z,98596.60
2022-08-26T22:11:54.227Z,98590.20
2022-08-26T22:14:25.375Z,98587.60
2022-08-26T22:16:57.680Z,98584.40
2022-08-26T22:19:26.356Z,98581.20
2022-08-26T22:21:55.649Z,98576.40
2022-08-26T22:24:27.096Z,98570.00
2022-08-26T22:26:55.527Z,98566.60
2022-08-26T22:29:25.130Z,98559.40
2022-08-26T22:31:53.660Z,98559.80
2022-08-26T22:34:23.125Z,98563.40
2022-08-26T22:36:51.408Z,98565.60
2022-08-26T22:39:24.576Z,98560.20
2022-08-26T22:41:53.952Z,98563.00
2022-08-26T22:44:22.204Z,98559.20
2022-08-26T22:46:54.255Z,98557.40
2022-08-26T22:49:23.327Z,98542.80
2022-08-26T22:51:51.092Z,98541.60
2022-08-26T22:54:19.374Z,98538.60
2022-08-26T22:56:47.094Z,98540.40
2022-08-26T22:59:16.236Z,98541.60
2022-08-26T23:01:44.421Z,98543.20
2022-08-26T23:04:12.141Z,98543.40
2022-08-26T23:06:47.437Z,98541.80
2022-08-26T23:09:18.681Z,98543.20
2022-08-26T23:11:48.661Z,98538.20
2022-08-26T23:14:18.906Z,98539.00
2022-08-26T23:16:47.756Z,98533.40
2022-08-26T23:19:22.421Z,98537.80
2022-08-26T23:21:51.022Z,98536.80
2022-08-26T23:24:18.760Z,98539.00
2022-08-26T23:26:48.114Z,98542.40
2022-08-26T23:29:16.681Z,98542.20
2022-08-26T23:31:45.455Z,98538.00
2022-08-26T23:34:32.009Z,98530.80
2022-08-26T23:37:01.021Z,98525.60
2022-08-26T23:39:32.133Z,98525.60
2022-08-26T23:42:01.965Z,98521.00
2022-08-26T23:44:30.750Z,98522.60
2022-08-26T23:46:59.404Z,98521.40
2022-08-26T23:49:28.764Z,98525.60
2022-08-26T23:52:15.536Z,98519.60
2022-08-26T23:54:43.644Z,98521.80
2022-08-26T23:57:11.356Z,98518.60
2022-08-26T23:59:39.100Z,98521.40
